KFTG

Front Range Airport

Denver, Colorado, USA
METAR KFTG 191447Z 00000KT 10SM BKN095 BKN220 14/12 A3024
Observed Flight Rules
Aug-19 @ 14:47 UTC (52 minutes ago) Visual Flight Rules
Visibility Clouds
10 miles
  • Broken at 9,500' AGL
  • Broken at 22,000' AGL
Temperatures Readings
Current 14°C / 57°F
Dewpoint 12°C / 54°F
Humidity 88%
Altimeter 30.24" Hg
Pressure 1024 hPa
Elevation 1675
METAR KFTG 191447Z 00000KT 10SM BKN095 BKN220 14/12 A3024
Observed Flight Rules
Aug-19 @ 14:47 UTC
(52 minutes ago)
VFR
Clouds
  • Broken at 9,500' AGL
  • Broken at 22,000' AGL
Temperature Dewpoint
14°C / 57°F 12°C / 54°F
Humidity Altimeter Pressure
88% 30.24" Hg 1024 hPa